sensor_id;sensor_type;location;lat;lon;timestamp;temperature;humidity
19999;DHT22;10160;50.926;4.374;2023-03-01T00:01:32;2.40;99.90
19999;DHT22;10160;50.926;4.374;2023-03-01T00:03:58;2.40;99.90
19999;DHT22;10160;50.926;4.374;2023-03-01T00:06:26;2.40;99.90
19999;DHT22;10160;50.926;4.374;2023-03-01T00:08:52;2.30;99.90
19999;DHT22;10160;50.926;4.374;2023-03-01T00:11:27;2.30;99.90
19999;DHT22;10160;50.926;4.374;2023-03-01T00:13:55;2.20;99.90
19999;DHT22;10160;50.926;4.374;2023-03-01T00:16:31;2.20;99.90
19999;DHT22;10160;50.926;4.374;2023-03-01T00:18:58;2.30;99.90
19999;DHT22;10160;50.926;4.374;2023-03-01T00:21:25;2.20;99.90
19999;DHT22;10160;50.926;4.374;2023-03-01T00:23:51;2.20;99.90
19999;DHT22;10160;50.926;4.374;2023-03-01T00:26:18;2.30;99.90
19999;DHT22;10160;50.926;4.374;2023-03-01T00:28:44;2.20;99.90
19999;DHT22;10160;50.926;4.374;2023-03-01T00:31:16;2.20;99.90
19999;DHT22;10160;50.926;4.374;2023-03-01T00:33:42;2.10;99.90
19999;DHT22;10160;50.926;4.374;2023-03-01T00:36:09;2.10;99.90
19999;DHT22;10160;50.926;4.374;2023-03-01T00:38:37;2.10;99.90
19999;DHT22;10160;50.926;4.374;2023-03-01T00:41:04;2.10;99.90
19999;DHT22;10160;50.926;4.374;2023-03-01T00:43:30;2.10;99.90
19999;DHT22;10160;50.926;4.374;2023-03-01T00:46:01;2.20;99.90
19999;DHT22;10160;50.926;4.374;2023-03-01T00:48:26;2.10;99.90
19999;DHT22;10160;50.926;4.374;2023-03-01T00:50:52;2.10;99.90
19999;DHT22;10160;50.926;4.374;2023-03-01T00:53:18;2.10;99.90
19999;DHT22;10160;50.926;4.374;2023-03-01T00:55:43;2.10;99.90
19999;DHT22;10160;50.926;4.374;2023-03-01T00:58:09;2.10;99.90
19999;DHT22;10160;50.926;4.374;2023-03-01T01:00:35;2.00;99.90
19999;DHT22;10160;50.926;4.374;2023-03-01T01:03:01;2.10;99.90
19999;DHT22;10160;50.926;4.374;2023-03-01T01:05:26;2.10;99.90
19999;DHT22;10160;50.926;4.374;2023-03-01T01:07:52;2.00;99.90
19999;DHT22;10160;50.926;4.374;2023-03-01T01:10:18;1.90;99.90
19999;DHT22;10160;50.926;4.374;2023-03-01T01:12:45;1.90;99.90
19999;DHT22;10160;50.926;4.374;2023-03-01T01:15:11;2.00;99.90
19999;DHT22;10160;50.926;4.374;2023-03-01T01:17:39;1.90;99.90
19999;DHT22;10160;50.926;4.374;2023-03-01T01:20:05;1.80;99.90
19999;DHT22;10160;50.926;4.374;2023-03-01T01:22:31;1.80;99.90
19999;DHT22;10160;50.926;4.374;2023-03-01T01:24:57;1.80;99.90
19999;DHT22;10160;50.926;4.374;2023-03-01T01:27:23;1.90;99.90
19999;DHT22;10160;50.926;4.374;2023-03-01T01:29:48;1.90;99.90
19999;DHT22;10160;50.926;4.374;2023-03-01T01:32:14;1.80;99.90
19999;DHT22;10160;50.926;4.374;2023-03-01T01:34:40;1.70;99.90
19999;DHT22;10160;50.926;4.374;2023-03-01T01:37:05;1.60;99.90
19999;DHT22;10160;50.926;4.374;2023-03-01T01:39:34;1.60;99.90
19999;DHT22;10160;50.926;4.374;2023-03-01T01:42:01;1.80;99.90
19999;DHT22;10160;50.926;4.374;2023-03-01T01:44:28;1.70;99.90
19999;DHT22;10160;50.926;4.374;2023-03-01T01:47:12;1.90;99.90
19999;DHT22;10160;50.926;4.374;2023-03-01T01:49:44;1.70;99.90
19999;DHT22;10160;50.926;4.374;2023-03-01T01:52:26;1.70;99.90
19999;DHT22;10160;50.926;4.374;2023-03-01T01:55:06;1.60;99.90
19999;DHT22;10160;50.926;4.374;2023-03-01T01:58:02;1.60;99.90
19999;DHT22;10160;50.926;4.374;2023-03-01T02:00:29;1.60;99.90
19999;DHT22;10160;50.926;4.374;2023-03-01T02:03:00;1.60;99.90
19999;DHT22;10160;50.926;4.374;2023-03-01T02:05:45;1.50;99.90
19999;DHT22;10160;50.926;4.374;2023-03-01T02:08:15;1.50;99.90
19999;DHT22;10160;50.926;4.374;2023-03-01T02:10:42;1.30;99.90
19999;DHT22;10160;50.926;4.374;2023-03-01T02:13:09;1.40;99.90
19999;DHT22;10160;50.926;4.374;2023-03-01T02:15:38;1.30;99.90
19999;DHT22;10160;50.926;4.374;2023-03-01T02:18:07;1.30;99.90
19999;DHT22;10160;50.926;4.374;2023-03-01T02:23:11;1.40;99.90
19999;DHT22;10160;50.926;4.374;2023-03-01T02:25:57;1.40;99.90
19999;DHT22;10160;50.926;4.374;2023-03-01T02:28:38;1.40;99.90
19999;DHT22;10160;50.926;4.374;2023-03-01T02:31:09;1.30;99.90
19999;DHT22;10160;50.926;4.374;2023-03-01T02:33:55;1.30;99.90
19999;DHT22;10160;50.926;4.374;2023-03-01T02:36:25;1.40;99.90
19999;DHT22;10160;50.926;4.374;2023-03-01T02:38:54;1.30;99.90
19999;DHT22;10160;50.926;4.374;2023-03-01T02:41:22;1.30;99.90
19999;DHT22;10160;50.926;4.374;2023-03-01T02:43:49;1.20;99.90
19999;DHT22;10160;50.926;4.374;2023-03-01T02:46:25;1.10;99.90
19999;DHT22;10160;50.926;4.374;2023-03-01T02:48:53;1.10;99.90
19999;DHT22;10160;50.926;4.374;2023-03-01T02:56:42;1.10;99.90
19999;DHT22;10160;50.926;4.374;2023-03-01T02:59:09;1.20;99.90
19999;DHT22;10160;50.926;4.374;2023-03-01T03:01:35;1.20;99.90
19999;DHT22;10160;50.926;4.374;2023-03-01T03:04:06;1.00;99.90
19999;DHT22;10160;50.926;4.374;2023-03-01T03:06:32;1.00;99.90
19999;DHT22;10160;50.926;4.374;2023-03-01T03:08:58;1.00;99.90
19999;DHT22;10160;50.926;4.374;2023-03-01T03:11:23;1.10;99.90
19999;DHT22;10160;50.926;4.374;2023-03-01T03:13:49;1.00;99.90
19999;DHT22;10160;50.926;4.374;2023-03-01T03:16:15;1.00;99.90
19999;DHT22;10160;50.926;4.374;2023-03-01T03:18:41;0.90;99.90
19999;DHT22;10160;50.926;4.374;2023-03-01T03:21:11;0.90;99.90
19999;DHT22;10160;50.926;4.374;2023-03-01T03:23:37;0.90;99.90
19999;DHT22;10160;50.926;4.374;2023-03-01T03:26:04;0.90;99.90
19999;DHT22;10160;50.926;4.374;2023-03-01T03:28:31;0.90;99.90
19999;DHT22;10160;50.926;4.374;2023-03-01T03:30:57;0.90;99.90
19999;DHT22;10160;50.926;4.374;2023-03-01T03:33:24;0.80;99.90
19999;DHT22;10160;50.926;4.374;2023-03-01T03:35:49;0.90;99.90
19999;DHT22;10160;50.926;4.374;2023-03-01T03:38:17;0.90;99.90
19999;DHT22;10160;50.926;4.374;2023-03-01T03:41:05;1.10;99.90
19999;DHT22;10160;50.926;4.374;2023-03-01T03:43:34;1.10;99.90
19999;DHT22;10160;50.926;4.374;2023-03-01T03:46:01;1.00;99.90
19999;DHT22;10160;50.926;4.374;2023-03-01T03:48:33;0.90;99.90
19999;DHT22;10160;50.926;4.374;2023-03-01T03:50:58;0.90;99.90
19999;DHT22;10160;50.926;4.374;2023-03-01T03:53:26;0.70;99.90
19999;DHT22;10160;50.926;4.374;2023-03-01T03:55:52;0.70;99.90
19999;DHT22;10160;50.926;4.374;2023-03-01T03:58:20;0.90;99.90
19999;DHT22;10160;50.926;4.374;2023-03-01T04:00:48;0.90;99.90
19999;DHT22;10160;50.926;4.374;2023-03-01T04:03:15;0.80;99.90
19999;DHT22;10160;50.926;4.374;2023-03-01T04:05:42;0.80;99.90
19999;DHT22;10160;50.926;4.374;2023-03-01T04:08:08;0.80;99.90
19999;DHT22;10160;50.926;4.374;2023-03-01T04:10:40;0.70;99.90
19999;DHT22;10160;50.926;4.374;2023-03-01T04:13:07;0.70;99.90
19999;DHT22;10160;50.926;4.374;2023-03-01T04:15:33;0.80;99.90
19999;DHT22;10160;50.926;4.374;2023-03-01T04:18:00;0.80;99.90
19999;DHT22;10160;50.926;4.374;2023-03-01T04:20:29;0.80;99.90
19999;DHT22;10160;50.926;4.374;2023-03-01T04:23:09;0.70;99.90
19999;DHT22;10160;50.926;4.374;2023-03-01T04:26:13;0.70;99.90
19999;DHT22;10160;50.926;4.374;2023-03-01T04:28:41;0.70;99.90
19999;DHT22;10160;50.926;4.374;2023-03-01T04:31:15;0.60;99.90
19999;DHT22;10160;50.926;4.374;2023-03-01T04:33:45;0.60;99.90
19999;DHT22;10160;50.926;4.374;2023-03-01T04:36:12;0.60;99.90
19999;DHT22;10160;50.926;4.374;2023-03-01T04:38:38;0.50;99.90
19999;DHT22;10160;50.926;4.374;2023-03-01T04:41:10;0.50;99.90
19999;DHT22;10160;50.926;4.374;2023-03-01T04:43:36;0.50;99.90
19999;DHT22;10160;50.926;4.374;2023-03-01T04:46:11;0.50;99.90
19999;DHT22;10160;50.926;4.374;2023-03-01T04:48:38;0.50;99.90
19999;DHT22;10160;50.926;4.374;2023-03-01T04:51:05;0.50;99.90
19999;DHT22;10160;50.926;4.374;2023-03-01T04:53:32;0.60;99.90
19999;DHT22;10160;50.926;4.374;2023-03-01T04:55:58;0.50;99.90
19999;DHT22;10160;50.926;4.374;2023-03-01T04:58:25;0.50;99.90
19999;DHT22;10160;50.926;4.374;2023-03-01T05:00:51;0.40;99.90
19999;DHT22;10160;50.926;4.374;2023-03-01T05:03:17;0.40;99.90
19999;DHT22;10160;50.926;4.374;2023-03-01T05:05:45;0.40;99.90
19999;DHT22;10160;50.926;4.374;2023-03-01T05:08:11;0.20;99.90
19999;DHT22;10160;50.926;4.374;2023-03-01T05:10:45;0.30;99.90
19999;DHT22;10160;50.926;4.374;2023-03-01T05:13:11;0.30;99.90
19999;DHT22;10160;50.926;4.374;2023-03-01T05:15:38;0.20;99.90
19999;DHT22;10160;50.926;4.374;2023-03-01T05:18:04;0.20;99.90
19999;DHT22;10160;50.926;4.374;2023-03-01T05:20:37;0.30;99.90
19999;DHT22;10160;50.926;4.374;2023-03-01T05:23:03;0.30;99.90
19999;DHT22;10160;50.926;4.374;2023-03-01T05:25:32;0.30;99.90
19999;DHT22;10160;50.926;4.374;2023-03-01T05:28:00;0.30;99.90
19999;DHT22;10160;50.926;4.374;2023-03-01T05:30:33;0.30;99.90
19999;DHT22;10160;50.926;4.374;2023-03-01T05:33:00;0.30;99.90
19999;DHT22;10160;50.926;4.374;2023-03-01T05:35:28;0.20;99.90
19999;DHT22;10160;50.926;4.374;2023-03-01T05:37:55;0.20;99.90
19999;DHT22;10160;50.926;4.374;2023-03-01T05:40:22;0.10;99.90
19999;DHT22;10160;50.926;4.374;2023-03-01T05:42:55;0.20;99.90
19999;DHT22;10160;50.926;4.374;2023-03-01T05:45:22;0.30;99.90
19999;DHT22;10160;50.926;4.374;2023-03-01T05:47:49;0.30;99.90
19999;DHT22;10160;50.926;4.374;2023-03-01T05:50:22;0.30;99.90
19999;DHT22;10160;50.926;4.374;2023-03-01T05:53:15;0.20;99.90
19999;DHT22;10160;50.926;4.374;2023-03-01T05:55:42;0.30;99.90
19999;DHT22;10160;50.926;4.374;2023-03-01T05:58:11;0.20;99.90
19999;DHT22;10160;50.926;4.374;2023-03-01T06:00:37;0.30;99.90
19999;DHT22;10160;50.926;4.374;2023-03-01T06:03:03;0.20;99.90
19999;DHT22;10160;50.926;4.374;2023-03-01T06:05:29;0.20;99.90
19999;DHT22;10160;50.926;4.374;2023-03-01T06:07:55;0.20;99.90
19999;DHT22;10160;50.926;4.374;2023-03-01T06:10:25;0.20;99.90
19999;DHT22;10160;50.926;4.374;2023-03-01T06:12:52;0.30;99.90
19999;DHT22;10160;50.926;4.374;2023-03-01T06:15:18;0.40;99.90
19999;DHT22;10160;50.926;4.374;2023-03-01T06:17:46;0.40;99.90
19999;DHT22;10160;50.926;4.374;2023-03-01T06:20:16;0.40;99.90
19999;DHT22;10160;50.926;4.374;2023-03-01T06:22:43;0.40;99.90
19999;DHT22;10160;50.926;4.374;2023-03-01T06:25:10;0.50;99.90
19999;DHT22;10160;50.926;4.374;2023-03-01T06:27:36;0.40;99.90
19999;DHT22;10160;50.926;4.374;2023-03-01T06:30:02;0.60;99.90
19999;DHT22;10160;50.926;4.374;2023-03-01T06:32:28;0.60;99.90
19999;DHT22;10160;50.926;4.374;2023-03-01T06:34:54;0.50;99.90
19999;DHT22;10160;50.926;4.374;2023-03-01T06:37:21;0.60;99.90
19999;DHT22;10160;50.926;4.374;2023-03-01T06:39:46;0.50;99.90
19999;DHT22;10160;50.926;4.374;2023-03-01T06:42:13;0.50;99.90
19999;DHT22;10160;50.926;4.374;2023-03-01T06:44:39;0.50;99.90
19999;DHT22;10160;50.926;4.374;2023-03-01T06:47:05;0.50;99.90
19999;DHT22;10160;50.926;4.374;2023-03-01T06:49:31;0.50;99.90
19999;DHT22;10160;50.926;4.374;2023-03-01T06:51:57;0.60;99.90
19999;DHT22;10160;50.926;4.374;2023-03-01T06:54:23;0.60;99.90
19999;DHT22;10160;50.926;4.374;2023-03-01T06:56:50;0.70;99.90
19999;DHT22;10160;50.926;4.374;2023-03-01T06:59:16;0.80;99.90
19999;DHT22;10160;50.926;4.374;2023-03-01T07:01:42;1.20;99.90
19999;DHT22;10160;50.926;4.374;2023-03-01T07:04:09;1.70;99.90
19999;DHT22;10160;50.926;4.374;2023-03-01T07:06:35;2.10;99.90
19999;DHT22;10160;50.926;4.374;2023-03-01T07:09:00;2.60;99.90
19999;DHT22;10160;50.926;4.374;2023-03-01T07:11:26;2.90;99.90
19999;DHT22;10160;50.926;4.374;2023-03-01T07:13:52;3.30;99.90
19999;DHT22;10160;50.926;4.374;2023-03-01T07:16:18;3.60;99.90
19999;DHT22;10160;50.926;4.374;2023-03-01T07:18:45;3.90;99.90
19999;DHT22;10160;50.926;4.374;2023-03-01T07:21:13;4.00;99.90
19999;DHT22;10160;50.926;4.374;2023-03-01T07:23:39;4.20;99.90
19999;DHT22;10160;50.926;4.374;2023-03-01T07:26:04;4.30;99.90
19999;DHT22;10160;50.926;4.374;2023-03-01T07:28:31;4.30;99.90
19999;DHT22;10160;50.926;4.374;2023-03-01T07:31:02;4.30;99.90
19999;DHT22;10160;50.926;4.374;2023-03-01T07:33:28;4.20;99.90
19999;DHT22;10160;50.926;4.374;2023-03-01T07:35:58;4.20;99.90
19999;DHT22;10160;50.926;4.374;2023-03-01T07:38:25;4.20;99.90
19999;DHT22;10160;50.926;4.374;2023-03-01T07:40:51;4.40;99.90
19999;DHT22;10160;50.926;4.374;2023-03-01T07:43:17;4.70;99.90
19999;DHT22;10160;50.926;4.374;2023-03-01T07:45:43;5.00;99.90
19999;DHT22;10160;50.926;4.374;2023-03-01T07:48:09;5.10;99.90
19999;DHT22;10160;50.926;4.374;2023-03-01T07:50:35;5.00;99.90
19999;DHT22;10160;50.926;4.374;2023-03-01T07:53:00;5.00;99.90
19999;DHT22;10160;50.926;4.374;2023-03-01T07:55:26;5.00;99.90
19999;DHT22;10160;50.926;4.374;2023-03-01T07:57:52;5.00;99.90
19999;DHT22;10160;50.926;4.374;2023-03-01T08:00:18;5.20;99.90
19999;DHT22;10160;50.926;4.374;2023-03-01T08:02:43;5.50;99.90
19999;DHT22;10160;50.926;4.374;2023-03-01T08:05:10;5.50;99.90
19999;DHT22;10160;50.926;4.374;2023-03-01T08:07:35;5.40;99.90
19999;DHT22;10160;50.926;4.374;2023-03-01T08:10:01;5.00;99.90
19999;DHT22;10160;50.926;4.374;2023-03-01T08:12:29;4.70;99.90
19999;DHT22;10160;50.926;4.374;2023-03-01T08:14:54;4.70;99.90
19999;DHT22;10160;50.926;4.374;2023-03-01T08:17:20;4.60;99.90
19999;DHT22;10160;50.926;4.374;2023-03-01T08:19:46;4.50;99.90
19999;DHT22;10160;50.926;4.374;2023-03-01T08:22:12;4.70;99.90
19999;DHT22;10160;50.926;4.374;2023-03-01T08:24:44;4.50;99.90
19999;DHT22;10160;50.926;4.374;2023-03-01T08:27:09;4.40;99.90
19999;DHT22;10160;50.926;4.374;2023-03-01T08:29:37;4.40;99.90
19999;DHT22;10160;50.926;4.374;2023-03-01T08:32:02;4.50;99.90
19999;DHT22;10160;50.926;4.374;2023-03-01T08:34:28;4.90;99.90
19999;DHT22;10160;50.926;4.374;2023-03-01T08:36:54;5.20;99.90
19999;DHT22;10160;50.926;4.374;2023-03-01T08:39:20;5.10;99.90
19999;DHT22;10160;50.926;4.374;2023-03-01T08:41:49;5.30;99.90
19999;DHT22;10160;50.926;4.374;2023-03-01T08:44:15;5.30;99.90
19999;DHT22;10160;50.926;4.374;2023-03-01T08:46:42;5.10;99.90
19999;DHT22;10160;50.926;4.374;2023-03-01T08:49:13;5.30;99.90
19999;DHT22;10160;50.926;4.374;2023-03-01T08:51:39;5.40;99.90
19999;DHT22;10160;50.926;4.374;2023-03-01T08:54:13;5.40;99.90
19999;DHT22;10160;50.926;4.374;2023-03-01T08:56:40;5.30;99.90
19999;DHT22;10160;50.926;4.374;2023-03-01T08:59:07;5.20;99.90
19999;DHT22;10160;50.926;4.374;2023-03-01T09:01:32;5.00;99.90
19999;DHT22;10160;50.926;4.374;2023-03-01T09:03:58;4.80;99.90
19999;DHT22;10160;50.926;4.374;2023-03-01T09:06:25;4.80;99.90
19999;DHT22;10160;50.926;4.374;2023-03-01T09:08:51;4.90;99.90
19999;DHT22;10160;50.926;4.374;2023-03-01T09:11:20;4.80;99.90
19999;DHT22;10160;50.926;4.374;2023-03-01T09:13:47;4.90;99.90
19999;DHT22;10160;50.926;4.374;2023-03-01T09:16:15;5.00;99.90
19999;DHT22;10160;50.926;4.374;2023-03-01T09:18:43;5.20;99.90
19999;DHT22;10160;50.926;4.374;2023-03-01T09:21:15;5.80;99.90
19999;DHT22;10160;50.926;4.374;2023-03-01T09:23:43;6.30;99.90
19999;DHT22;10160;50.926;4.374;2023-03-01T09:26:17;6.70;99.90
19999;DHT22;10160;50.926;4.374;2023-03-01T09:28:45;6.80;99.90
19999;DHT22;10160;50.926;4.374;2023-03-01T09:31:12;6.90;99.90
19999;DHT22;10160;50.926;4.374;2023-03-01T09:33:38;6.90;99.90
19999;DHT22;10160;50.926;4.374;2023-03-01T09:36:08;7.10;99.90
19999;DHT22;10160;50.926;4.374;2023-03-01T09:38:35;7.20;99.90
19999;DHT22;10160;50.926;4.374;2023-03-01T09:41:01;7.30;99.90
19999;DHT22;10160;50.926;4.374;2023-03-01T09:46:11;6.70;99.90
19999;DHT22;10160;50.926;4.374;2023-03-01T09:48:55;6.60;99.90
19999;DHT22;10160;50.926;4.374;2023-03-01T09:51:31;6.10;99.90
19999;DHT22;10160;50.926;4.374;2023-03-01T09:53:58;5.50;99.90
19999;DHT22;10160;50.926;4.374;2023-03-01T09:56:43;5.60;99.90
19999;DHT22;10160;50.926;4.374;2023-03-01T09:59:37;5.90;99.90
19999;DHT22;10160;50.926;4.374;2023-03-01T10:02:26;6.60;99.90
19999;DHT22;10160;50.926;4.374;2023-03-01T10:05:10;7.50;99.90
19999;DHT22;10160;50.926;4.374;2023-03-01T10:08:03;8.10;99.90
19999;DHT22;10160;50.926;4.374;2023-03-01T10:10:36;8.60;99.90
19999;DHT22;10160;50.926;4.374;2023-03-01T10:13:15;8.90;99.90
19999;DHT22;10160;50.926;4.374;2023-03-01T10:15:55;9.30;99.90
19999;DHT22;10160;50.926;4.374;2023-03-01T10:18:26;10.10;99.90
19999;DHT22;10160;50.926;4.374;2023-03-01T10:21:09;10.50;99.90
19999;DHT22;10160;50.926;4.374;2023-03-01T10:23:38;11.00;99.90
19999;DHT22;10160;50.926;4.374;2023-03-01T10:26:29;11.40;99.90
19999;DHT22;10160;50.926;4.374;2023-03-01T10:31:37;12.20;99.90
19999;DHT22;10160;50.926;4.374;2023-03-01T10:37:11;10.30;99.90
19999;DHT22;10160;50.926;4.374;2023-03-01T10:39:37;11.30;99.90
19999;DHT22;10160;50.926;4.374;2023-03-01T10:42:25;12.10;99.90
19999;DHT22;10160;50.926;4.374;2023-03-01T10:44:51;12.50;99.90
19999;DHT22;10160;50.926;4.374;2023-03-01T10:49:57;15.40;94.90
19999;DHT22;10160;50.926;4.374;2023-03-01T10:52:37;15.80;89.40
19999;DHT22;10160;50.926;4.374;2023-03-01T10:55:34;15.70;85.00
19999;DHT22;10160;50.926;4.374;2023-03-01T10:58:19;14.90;87.50
19999;DHT22;10160;50.926;4.374;2023-03-01T11:00:56;16.00;85.20
19999;DHT22;10160;50.926;4.374;2023-03-01T11:03:26;16.60;80.40
19999;DHT22;10160;50.926;4.374;2023-03-01T11:05:55;16.70;76.90
19999;DHT22;10160;50.926;4.374;2023-03-01T11:11:24;17.70;71.70
19999;DHT22;10160;50.926;4.374;2023-03-01T11:13:58;18.30;68.80
19999;DHT22;10160;50.926;4.374;2023-03-01T11:19:41;18.10;65.30
19999;DHT22;10160;50.926;4.374;2023-03-01T11:24:51;16.90;66.10
19999;DHT22;10160;50.926;4.374;2023-03-01T11:27:23;18.10;64.00
19999;DHT22;10160;50.926;4.374;2023-03-01T11:29:57;17.00;63.00
19999;DHT22;10160;50.926;4.374;2023-03-01T11:32:26;17.70;67.70
19999;DHT22;10160;50.926;4.374;2023-03-01T11:34:57;18.60;62.60
19999;DHT22;10160;50.926;4.374;2023-03-01T11:37:38;19.30;60.20
19999;DHT22;10160;50.926;4.374;2023-03-01T11:40:27;20.30;58.80
19999;DHT22;10160;50.926;4.374;2023-03-01T11:43:13;20.90;57.90
19999;DHT22;10160;50.926;4.374;2023-03-01T11:48:37;20.10;56.70
19999;DHT22;10160;50.926;4.374;2023-03-01T11:51:38;20.20;56.20
19999;DHT22;10160;50.926;4.374;2023-03-01T11:56:52;20.80;54.40
19999;DHT22;10160;50.926;4.374;2023-03-01T12:10:28;17.60;54.90
19999;DHT22;10160;50.926;4.374;2023-03-01T12:13:30;17.90;55.00
19999;DHT22;10160;50.926;4.374;2023-03-01T12:19:15;18.60;56.00
19999;DHT22;10160;50.926;4.374;2023-03-01T12:22:08;17.20;54.20
19999;DHT22;10160;50.926;4.374;2023-03-01T12:24:47;17.50;56.10
19999;DHT22;10160;50.926;4.374;2023-03-01T12:51:32;20.70;50.00
19999;DHT22;10160;50.926;4.374;2023-03-01T12:53:59;20.50;49.50
19999;DHT22;10160;50.926;4.374;2023-03-01T12:56:31;20.40;50.60
19999;DHT22;10160;50.926;4.374;2023-03-01T12:59:20;20.00;48.10
19999;DHT22;10160;50.926;4.374;2023-03-01T13:05:00;20.00;50.50
19999;DHT22;10160;50.926;4.374;2023-03-01T13:10:33;19.50;49.80
19999;DHT22;10160;50.926;4.374;2023-03-01T13:13:24;19.60;49.90
19999;DHT22;10160;50.926;4.374;2023-03-01T13:15:50;20.30;50.60
19999;DHT22;10160;50.926;4.374;2023-03-01T13:33:52;19.20;50.00
19999;DHT22;10160;50.926;4.374;2023-03-01T13:46:44;15.80;51.90
19999;DHT22;10160;50.926;4.374;2023-03-01T13:49:14;16.30;54.70
19999;DHT22;10160;50.926;4.374;2023-03-01T13:51:41;17.00;54.10
19999;DHT22;10160;50.926;4.374;2023-03-01T13:54:12;17.00;51.30
19999;DHT22;10160;50.926;4.374;2023-03-01T13:56:39;17.10;53.70
19999;DHT22;10160;50.926;4.374;2023-03-01T13:59:20;17.00;53.20
19999;DHT22;10160;50.926;4.374;2023-03-01T14:02:01;17.10;53.20
19999;DHT22;10160;50.926;4.374;2023-03-01T14:04:29;17.30;53.00
19999;DHT22;10160;50.926;4.374;2023-03-01T14:07:20;17.10;54.20
19999;DHT22;10160;50.926;4.374;2023-03-01T14:09:48;17.30;53.30
19999;DHT22;10160;50.926;4.374;2023-03-01T14:12:38;17.30;53.10
19999;DHT22;10160;50.926;4.374;2023-03-01T14:20:32;17.30;53.10
19999;DHT22;10160;50.926;4.374;2023-03-01T14:23:02;17.40;54.10
19999;DHT22;10160;50.926;4.374;2023-03-01T14:25:36;17.40;51.90
19999;DHT22;10160;50.926;4.374;2023-03-01T14:28:23;17.10;51.90
19999;DHT22;10160;50.926;4.374;2023-03-01T14:30:54;17.00;52.90
19999;DHT22;10160;50.926;4.374;2023-03-01T14:33:28;16.90;53.30
19999;DHT22;10160;50.926;4.374;2023-03-01T14:40:59;16.70;53.20
19999;DHT22;10160;50.926;4.374;2023-03-01T14:43:27;16.30;53.30
19999;DHT22;10160;50.926;4.374;2023-03-01T14:45:53;16.10;54.70
19999;DHT22;10160;50.926;4.374;2023-03-01T14:48:19;16.00;54.60
19999;DHT22;10160;50.926;4.374;2023-03-01T14:50:46;16.00;55.00
19999;DHT22;10160;50.926;4.374;2023-03-01T14:53:17;16.00;55.50
19999;DHT22;10160;50.926;4.374;2023-03-01T14:55:56;15.70;55.40
19999;DHT22;10160;50.926;4.374;2023-03-01T14:58:24;15.60;55.70
19999;DHT22;10160;50.926;4.374;2023-03-01T15:01:01;15.50;55.20
19999;DHT22;10160;50.926;4.374;2023-03-01T15:03:34;15.30;55.00
19999;DHT22;10160;50.926;4.374;2023-03-01T15:06:02;15.20;56.50
19999;DHT22;10160;50.926;4.374;2023-03-01T15:08:29;15.10;56.60
19999;DHT22;10160;50.926;4.374;2023-03-01T15:13:40;15.00;57.20
19999;DHT22;10160;50.926;4.374;2023-03-01T15:16:18;14.80;58.10
19999;DHT22;10160;50.926;4.374;2023-03-01T15:18:47;14.60;58.40
19999;DHT22;10160;50.926;4.374;2023-03-01T15:21:26;14.10;58.10
19999;DHT22;10160;50.926;4.374;2023-03-01T15:26:35;13.40;60.10
19999;DHT22;10160;50.926;4.374;2023-03-01T15:29:02;13.30;60.80
19999;DHT22;10160;50.926;4.374;2023-03-01T15:31:35;13.20;61.20
19999;DHT22;10160;50.926;4.374;2023-03-01T15:36:48;12.90;61.90
19999;DHT22;10160;50.926;4.374;2023-03-01T15:39:35;12.60;62.00
19999;DHT22;10160;50.926;4.374;2023-03-01T15:42:13;12.50;63.80
19999;DHT22;10160;50.926;4.374;2023-03-01T15:44:49;12.50;64.50
19999;DHT22;10160;50.926;4.374;2023-03-01T15:47:29;12.30;64.60
19999;DHT22;10160;50.926;4.374;2023-03-01T15:49:57;12.10;65.10
19999;DHT22;10160;50.926;4.374;2023-03-01T15:52:33;11.40;67.10
19999;DHT22;10160;50.926;4.374;2023-03-01T15:55:04;11.40;69.70
19999;DHT22;10160;50.926;4.374;2023-03-01T15:57:31;11.40;70.30
19999;DHT22;10160;50.926;4.374;2023-03-01T15:59:57;11.20;69.30
19999;DHT22;10160;50.926;4.374;2023-03-01T16:02:24;11.20;71.30
19999;DHT22;10160;50.926;4.374;2023-03-01T16:04:50;11.10;70.20
19999;DHT22;10160;50.926;4.374;2023-03-01T16:07:16;11.00;71.00
19999;DHT22;10160;50.926;4.374;2023-03-01T16:09:42;11.00;72.00
19999;DHT22;10160;50.926;4.374;2023-03-01T16:12:14;10.80;73.30
19999;DHT22;10160;50.926;4.374;2023-03-01T16:14:40;10.80;74.20
19999;DHT22;10160;50.926;4.374;2023-03-01T16:17:06;10.90;72.70
19999;DHT22;10160;50.926;4.374;2023-03-01T16:19:33;10.80;72.80
19999;DHT22;10160;50.926;4.374;2023-03-01T16:21:59;10.60;74.10
19999;DHT22;10160;50.926;4.374;2023-03-01T16:24:24;10.50;74.10
19999;DHT22;10160;50.926;4.374;2023-03-01T16:26:51;10.30;74.40
19999;DHT22;10160;50.926;4.374;2023-03-01T16:29:17;10.10;74.30
19999;DHT22;10160;50.926;4.374;2023-03-01T16:31:42;10.10;74.80
19999;DHT22;10160;50.926;4.374;2023-03-01T16:34:08;9.70;75.60
19999;DHT22;10160;50.926;4.374;2023-03-01T16:36:34;9.60;76.70
19999;DHT22;10160;50.926;4.374;2023-03-01T16:39:00;9.70;78.00
19999;DHT22;10160;50.926;4.374;2023-03-01T16:41:27;9.60;79.00
19999;DHT22;10160;50.926;4.374;2023-03-01T16:43:52;9.60;80.00
19999;DHT22;10160;50.926;4.374;2023-03-01T16:46:24;9.70;80.40
19999;DHT22;10160;50.926;4.374;2023-03-01T16:48:50;9.60;81.50
19999;DHT22;10160;50.926;4.374;2023-03-01T16:51:17;9.60;83.00
19999;DHT22;10160;50.926;4.374;2023-03-01T16:53:43;9.60;83.30
19999;DHT22;10160;50.926;4.374;2023-03-01T16:56:11;9.50;84.20
19999;DHT22;10160;50.926;4.374;2023-03-01T16:58:37;9.40;84.30
19999;DHT22;10160;50.926;4.374;2023-03-01T17:01:09;9.40;85.60
19999;DHT22;10160;50.926;4.374;2023-03-01T17:03:36;9.40;85.70
19999;DHT22;10160;50.926;4.374;2023-03-01T17:06:11;9.40;85.10
19999;DHT22;10160;50.926;4.374;2023-03-01T17:08:38;9.30;85.60
19999;DHT22;10160;50.926;4.374;2023-03-01T17:11:09;9.20;86.00
19999;DHT22;10160;50.926;4.374;2023-03-01T17:13:36;9.10;86.90
19999;DHT22;10160;50.926;4.374;2023-03-01T17:16:07;9.00;87.20
19999;DHT22;10160;50.926;4.374;2023-03-01T17:18:34;9.00;88.00
19999;DHT22;10160;50.926;4.374;2023-03-01T17:20:59;9.00;88.20
19999;DHT22;10160;50.926;4.374;2023-03-01T17:23:27;8.70;90.40
19999;DHT22;10160;50.926;4.374;2023-03-01T17:25:53;8.60;90.70
19999;DHT22;10160;50.926;4.374;2023-03-01T17:28:22;8.40;91.80
19999;DHT22;10160;50.926;4.374;2023-03-01T17:30:48;8.40;92.60
19999;DHT22;10160;50.926;4.374;2023-03-01T17:33:15;8.20;93.60
19999;DHT22;10160;50.926;4.374;2023-03-01T17:35:40;8.20;94.50
19999;DHT22;10160;50.926;4.374;2023-03-01T17:38:06;8.20;94.10
19999;DHT22;10160;50.926;4.374;2023-03-01T17:40:33;8.10;94.50
19999;DHT22;10160;50.926;4.374;2023-03-01T17:43:00;8.10;94.90
19999;DHT22;10160;50.926;4.374;2023-03-01T17:45:26;8.10;94.80
19999;DHT22;10160;50.926;4.374;2023-03-01T17:47:52;8.00;95.20
19999;DHT22;10160;50.926;4.374;2023-03-01T17:50:18;7.90;95.90
19999;DHT22;10160;50.926;4.374;2023-03-01T17:52:43;7.90;96.90
19999;DHT22;10160;50.926;4.374;2023-03-01T17:55:09;7.70;97.40
19999;DHT22;10160;50.926;4.374;2023-03-01T17:57:38;7.70;97.70
19999;DHT22;10160;50.926;4.374;2023-03-01T18:00:08;7.80;97.40
19999;DHT22;10160;50.926;4.374;2023-03-01T18:02:34;7.80;97.00